Tanquinho, Brazil
Current Conditions -  °F | °C
As of 11:00 AM on Saturday 20 Dec 2014 (Local Time) from SBSV Reporting Station
Scattered Clouds Scattered Clouds  
Wind Chill: 82°   Ceiling: Unl
Heat Index: 88°   Visibility: 6mi
Dew Point: 73°   Wind: 16mph
Humidity: 74%   Direction: 80°E
Pressure: 29.97"   Gusts: NA
Location:  11.98°S, 39.1°W
Report Text: SBSV 201400Z 08014KT 9999 SCT017 28/23 Q1015
Loading
Personal Weather Stations






























Interactive Weather Map New forecast layout! Learn more

10-Day Weather Forecast

Advertisements
Track Severe Weather on mobile